nws-alerts: Checking more than four warning/county codes can delay the loading of your pages. You should use a cron job to get the data.
EllijayWeather Station Historical Data
Daily Summary for September 16, 2019 Units:  English    Metric   Both
Daily Weekly Monthly Yearly Custom
  High: Low: Average:
Temperature: 90.3 °F 62.1 °F 74 °F
Dew Point: 71.4 °F 60.4 °F 65 °F
Humidity: 98% 38% 78%
Wind Speed: 8.1mph 0mph 0.3mph
Wind Gust: 8mph - -
Wind- - WSW
Pressure: 30.14 in 30.01 in -
Precipitation: 0 in    
Historical Graphs
 
 
Tabular Data for September 16, 2019
Time Temperature Dew Point Pressure Wind Wind Speed Wind Gust Humidity Rainfall Rate (Hourly) solar
00:00 68.7 °F 66.9 °F 30.11 in Calm     94% 0 in meteobridge W/m2
00:05 68.7 °F 66.9 °F 30.11 in Calm     94% 0 in meteobridge W/m2
00:10 68.7 °F 66.9 °F 30.11 in Calm     94% 0 in meteobridge W/m2
00:15 68.5 °F 66.7 °F 30.11 in Calm     94% 0 in meteobridge W/m2
00:20 68.5 °F 66.7 °F 30.11 in Calm     94% 0 in meteobridge W/m2
00:25 68.4 °F 66.6 °F 30.11 in Calm     94% 0 in meteobridge W/m2
00:30 68.4 °F 66.6 °F 30.11 in Calm     94% 0 in meteobridge W/m2
00:35 68.2 °F 66.4 °F 30.11 in Calm     94% 0 in meteobridge W/m2
00:40 68.2 °F 66.4 °F 30.11 in Calm     94% 0 in meteobridge W/m2
00:45 67.8 °F 66 °F 30.11 in Calm     94% 0 in meteobridge W/m2
00:50 67.8 °F 66 °F 30.11 in Calm     94% 0 in meteobridge W/m2
00:55 67.6 °F 65.8 °F 30.11 in Calm     94% 0 in meteobridge W/m2
01:00 67.6 °F 66.2 °F 30.11 in Calm     95% 0 in meteobridge W/m2
01:05 67.6 °F 66.2 °F 30.11 in Calm     95% 0 in meteobridge W/m2
01:10 67.5 °F 66 °F 30.11 in Calm     95% 0 in meteobridge W/m2
01:15 67.5 °F 66 °F 30.11 in Calm     95% 0 in meteobridge W/m2
01:20 67.5 °F 66 °F 30.11 in Calm     95% 0 in meteobridge W/m2
01:25 67.3 °F 65.8 °F 30.11 in Calm     95% 0 in meteobridge W/m2
01:30 67.3 °F 65.8 °F 30.11 in Calm     95% 0 in meteobridge W/m2
01:35 67.3 °F 65.8 °F 30.11 in Calm     95% 0 in meteobridge W/m2
01:40 67.1 °F 65.7 °F 30.11 in Calm     95% 0 in meteobridge W/m2
01:45 66.9 °F 65.5 °F 30.11 in Calm     95% 0 in meteobridge W/m2
01:50 66.9 °F 65.7 °F 30.10 in Calm     96% 0 in meteobridge W/m2
01:55 66.9 °F 65.7 °F 30.11 in Calm     96% 0 in meteobridge W/m2
02:00 66.7 °F 65.5 °F 30.11 in Calm     96% 0 in meteobridge W/m2
02:05 66.7 °F 65.5 °F 30.11 in Calm     96% 0 in meteobridge W/m2
02:10 66.7 °F 65.5 °F 30.11 in Calm     96% 0 in meteobridge W/m2
02:15 66.6 °F 65.1 °F 30.11 in Calm     95% 0 in meteobridge W/m2
02:20 66.6 °F 65.1 °F 30.11 in Calm     95% 0 in meteobridge W/m2
02:25 66.6 °F 65.1 °F 30.11 in Calm     95% 0 in meteobridge W/m2
02:30 66.4 °F 65.1 °F 30.10 in Calm     96% 0 in meteobridge W/m2
02:35 66.4 °F 65.1 °F 30.10 in Calm     96% 0 in meteobridge W/m2
02:40 66 °F 64.8 °F 30.10 in Calm     96% 0 in meteobridge W/m2
02:45 66 °F 64.8 °F 30.10 in Calm     96% 0 in meteobridge W/m2
02:50 66 °F 64.8 °F 30.10 in Calm     96% 0 in meteobridge W/m2
02:55 65.8 °F 64.6 °F 30.10 in Calm     96% 0 in meteobridge W/m2
03:00 65.8 °F 64.6 °F 30.10 in Calm     96% 0 in meteobridge W/m2
03:05 65.8 °F 64.6 °F 30.10 in Calm     96% 0 in meteobridge W/m2
03:10 65.7 °F 64.4 °F 30.10 in Calm     96% 0 in meteobridge W/m2
03:15 65.7 °F 64.4 °F 30.10 in Calm     96% 0 in meteobridge W/m2
03:20 65.7 °F 64.4 °F 30.09 in Calm     96% 0 in meteobridge W/m2
03:25 65.5 °F 64.2 °F 30.09 in Calm     96% 0 in meteobridge W/m2
03:30 65.5 °F 64.2 °F 30.09 in Calm     96% 0 in meteobridge W/m2
03:35 65.5 °F 64.2 °F 30.09 in Calm     96% 0 in meteobridge W/m2
03:40 65.1 °F 64 °F 30.09 in Calm     96% 0 in meteobridge W/m2
03:45 65.1 °F 64 °F 30.09 in Calm     96% 0 in meteobridge W/m2
03:50 64.9 °F 63.9 °F 30.09 in Calm     96% 0 in meteobridge W/m2
03:55 64.9 °F 63.9 °F 30.09 in Calm     96% 0 in meteobridge W/m2
04:00 64.9 °F 63.9 °F 30.09 in Calm     96% 0 in meteobridge W/m2
04:05 64.8 °F 63.7 °F 30.09 in Calm     96% 0 in meteobridge W/m2
04:10 64.8 °F 63.7 °F 30.09 in Calm     96% 0 in meteobridge W/m2
04:15 64.6 °F 63.5 °F 30.09 in Calm     96% 0 in meteobridge W/m2
04:20 64.6 °F 63.5 °F 30.09 in Calm     96% 0 in meteobridge W/m2
04:25 64.4 °F 63.3 °F 30.09 in Calm     96% 0 in meteobridge W/m2
04:30 64.4 °F 63.3 °F 30.10 in Calm     96% 0 in meteobridge W/m2
04:35 64.4 °F 63.3 °F 30.10 in Calm     96% 0 in meteobridge W/m2
04:40 64.2 °F 63.1 °F 30.10 in Calm     96% 0 in meteobridge W/m2
04:45 64.2 °F 63.1 °F 30.10 in Calm     96% 0 in meteobridge W/m2
04:50 64 °F 63 °F 30.10 in Calm     96% 0 in meteobridge W/m2
04:55 64 °F 63 °F 30.10 in Calm     96% 0 in meteobridge W/m2
05:00 64 °F 63 °F 30.10 in Calm     96% 0 in meteobridge W/m2
05:05 64 °F 63 °F 30.10 in Calm     96% 0 in meteobridge W/m2
05:10 64 °F 63 °F 30.10 in Calm     96% 0 in meteobridge W/m2
05:15 63.9 °F 62.8 °F 30.10 in Calm     96% 0 in meteobridge W/m2
05:20 63.9 °F 62.8 °F 30.10 in Calm     96% 0 in meteobridge W/m2
05:25 63.9 °F 62.8 °F 30.10 in Calm     96% 0 in meteobridge W/m2
05:30 63.7 °F 62.8 °F 30.10 in Calm     97% 0 in meteobridge W/m2
05:35 63.7 °F 62.8 °F 30.10 in Calm     97% 0 in meteobridge W/m2
05:40 63.7 °F 62.8 °F 30.10 in Calm     97% 0 in meteobridge W/m2
05:45 63.5 °F 62.6 °F 30.10 in Calm     97% 0 in meteobridge W/m2
05:50 63.3 °F 62.2 °F 30.10 in Calm     96% 0 in meteobridge W/m2
05:55 63.3 °F 62.2 °F 30.10 in Calm     96% 0 in meteobridge W/m2
06:00 63.3 °F 62.2 °F 30.10 in Calm     96% 0 in meteobridge W/m2
06:05 63.3 °F 62.2 °F 30.11 in Calm     96% 0 in meteobridge W/m2
06:10 63.1 °F 62.1 °F 30.11 in Calm     96% 0 in meteobridge W/m2
06:15 63.1 °F 62.1 °F 30.11 in Calm     96% 0 in meteobridge W/m2
06:20 63 °F 61.9 °F 30.11 in Calm     96% 0 in meteobridge W/m2
06:25 63 °F 61.9 °F 30.11 in Calm     96% 0 in meteobridge W/m2
06:30 62.8 °F 61.7 °F 30.11 in Calm     96% 0 in meteobridge W/m2
06:35 62.8 °F 61.7 °F 30.12 in Calm     96% 0 in meteobridge W/m2
06:40 62.8 °F 61.9 °F 30.12 in Calm     97% 0 in meteobridge W/m2
06:45 62.8 °F 61.9 °F 30.12 in Calm     97% 0 in meteobridge W/m2
06:50 62.6 °F 61.7 °F 30.12 in Calm     97% 0 in meteobridge W/m2
06:55 62.6 °F 61.7 °F 30.12 in Calm     97% 0 in meteobridge W/m2
07:00 62.4 °F 61.5 °F 30.12 in Calm     97% 0 in meteobridge W/m2
07:05 62.4 °F 61.5 °F 30.12 in Calm     97% 0 in meteobridge W/m2
07:10 62.4 °F 61.5 °F 30.12 in Calm     97% 0 in meteobridge W/m2
07:15 62.2 °F 61.3 °F 30.12 in Calm     97% 0 in meteobridge W/m2
07:20 62.2 °F 61.3 °F 30.12 in Calm     97% 0 in meteobridge W/m2
07:25 62.2 °F 61.3 °F 30.13 in Calm     97% 0 in meteobridge W/m2
07:30 62.2 °F 61.3 °F 30.13 in Calm     97% 0 in meteobridge W/m2
07:35 62.1 °F 61.2 °F 30.13 in Calm     97% 0 in meteobridge W/m2
07:40 62.1 °F 61.2 °F 30.13 in Calm     97% 0 in meteobridge W/m2
07:45 62.1 °F 61.2 °F 30.13 in Calm     97% 0 in meteobridge W/m2
07:50 62.1 °F 61.2 °F 30.13 in Calm     97% 0 in meteobridge W/m2
07:55 62.1 °F 61.2 °F 30.13 in Calm     97% 0 in meteobridge W/m2
08:00 62.1 °F 61.2 °F 30.13 in Calm     97% 0 in meteobridge W/m2
08:05 62.1 °F 61.2 °F 30.13 in Calm     97% 0 in meteobridge W/m2
08:10 62.2 °F 61.3 °F 30.14 in Calm     97% 0 in meteobridge W/m2
08:15 62.2 °F 61.3 °F 30.14 in Calm     97% 0 in meteobridge W/m2
08:20 62.4 °F 61.9 °F 30.14 in Calm     98% 0 in meteobridge W/m2
08:25 62.4 °F 61.9 °F 30.14 in Calm     98% 0 in meteobridge W/m2
08:30 62.6 °F 62.1 °F 30.14 in Calm     98% 0 in meteobridge W/m2
08:35 63 °F 62.4 °F 30.14 in Calm     98% 0 in meteobridge W/m2
08:40 63 °F 62.4 °F 30.14 in Calm     98% 0 in meteobridge W/m2
08:45 63.1 °F 62.6 °F 30.14 in Calm     98% 0 in meteobridge W/m2
08:50 63.3 °F 62.8 °F 30.14 in Calm     98% 0 in meteobridge W/m2
08:55 63.7 °F 63.1 °F 30.14 in Calm     98% 0 in meteobridge W/m2
09:00 64 °F 63.5 °F 30.14 in Calm     98% 0 in meteobridge W/m2
09:05 64.4 °F 63.9 °F 30.14 in Calm     98% 0 in meteobridge W/m2
09:10 64.8 °F 64.2 °F 30.14 in Calm     98% 0 in meteobridge W/m2
09:15 65.1 °F 64.6 °F 30.14 in Calm     98% 0 in meteobridge W/m2
09:20 65.5 °F 64.6 °F 30.14 in Calm     97% 0 in meteobridge W/m2
09:25 65.8 °F 64.9 °F 30.14 in Calm     97% 0 in meteobridge W/m2
09:30 66.2 °F 65.7 °F 30.14 in Calm     98% 0 in meteobridge W/m2
09:35 66.6 °F 66 °F 30.14 in Calm     98% 0 in meteobridge W/m2
09:40 67.3 °F 66.4 °F 30.14 in Calm     97% 0 in meteobridge W/m2
09:45 67.6 °F 67.1 °F 30.14 in Calm     98% 0 in meteobridge W/m2
09:50 68.2 °F 67.3 °F 30.14 in Calm     97% 0 in meteobridge W/m2
09:55 68.5 °F 67.6 °F 30.14 in Calm     97% 0 in meteobridge W/m2
10:00 69.1 °F 68.2 °F 30.14 in Calm     97% 0 in meteobridge W/m2
10:05 69.4 °F 68.2 °F 30.14 in Calm     96% 0 in meteobridge W/m2
10:10 70 °F 68.2 °F 30.14 in Calm   1 mph 94% 0 in meteobridge W/m2
10:15 70.7 °F 68.5 °F 30.14 in Calm   1 mph 93% 0 in meteobridge W/m2
10:20 71.2 °F 69.1 °F 30.14 in Calm     93% 0 in meteobridge W/m2
10:25 72 °F 69.8 °F 30.14 in Calm     93% 0 in meteobridge W/m2
10:30 72.5 °F 70.3 °F 30.14 in Calm     93% 0 in meteobridge W/m2
10:35 73 °F 70.9 °F 30.14 in Calm     93% 0 in meteobridge W/m2
10:40 73.6 °F 71.1 °F 30.14 in Calm     92% 0 in meteobridge W/m2
10:45 73.9 °F 70.9 °F 30.14 in Calm     90% 0 in meteobridge W/m2
10:50 74.8 °F 71.4 °F 30.14 in Calm   1 mph 89% 0 in meteobridge W/m2
10:55 75.6 °F 70.7 °F 30.14 in Calm     85% 0 in meteobridge W/m2
11:00 76.3 °F 70 °F 30.14 in Calm   1 mph 81% 0 in meteobridge W/m2
11:05 77.4 °F 70 °F 30.13 in Calm   4 mph 78% 0 in meteobridge W/m2
11:10 78.4 °F 69.4 °F 30.13 in WNW 0.9 mph 3 mph 74% 0 in meteobridge W/m2
11:15 79.3 °F 69.1 °F 30.13 in Calm   2 mph 71% 0 in meteobridge W/m2
11:20 80.2 °F 69.1 °F 30.13 in NNE 2.9 mph 3 mph 69% 0 in meteobridge W/m2
11:25 80.8 °F 69.3 °F 30.13 in Calm   1 mph 68% 0 in meteobridge W/m2
11:30 81.1 °F 69.6 °F 30.13 in North 2.9 mph 3 mph 68% 0 in meteobridge W/m2
11:35 81.7 °F 69.6 °F 30.13 in Calm   2 mph 67% 0 in meteobridge W/m2
11:40 82 °F 69.6 °F 30.13 in NNE 0.9 mph 2 mph 66% 0 in meteobridge W/m2
11:45 82.2 °F 69.3 °F 30.13 in Calm   4 mph 65% 0 in meteobridge W/m2
11:50 82.6 °F 70.9 °F 30.12 in Calm     68% 0 in meteobridge W/m2
11:55 82.8 °F 70.2 °F 30.12 in Calm   4 mph 66% 0 in meteobridge W/m2
12:00 82.9 °F 70 °F 30.11 in Calm   2 mph 65% 0 in meteobridge W/m2
12:05 83.1 °F 71.1 °F 30.11 in NNW 0.9 mph 1 mph 67% 0 in meteobridge W/m2
12:10 83.3 °F 71.2 °F 30.11 in Calm     67% 0 in meteobridge W/m2
12:15 83.5 °F 68.2 °F 30.11 in NW 2 mph 3 mph 60% 0 in meteobridge W/m2
12:20 83.8 °F 68.9 °F 30.11 in Calm   3 mph 61% 0 in meteobridge W/m2
12:25 84 °F 69.1 °F 30.10 in Calm   2 mph 61% 0 in meteobridge W/m2
12:30 84.4 °F 68 °F 30.10 in WNW 2.9 mph 4 mph 58% 0 in meteobridge W/m2
12:35 84.9 °F 65.8 °F 30.10 in NE 2.9 mph 6 mph 53% 0 in meteobridge W/m2
12:40 85.3 °F 65.1 °F 30.10 in WNW 0.9 mph 8 mph 51% 0 in meteobridge W/m2
12:45 85.8 °F 65.7 °F 30.10 in Calm   1 mph 51% 0 in meteobridge W/m2
12:50 86.2 °F 65.8 °F 30.10 in Calm     51% 0 in meteobridge W/m2
12:55 86.4 °F 64.9 °F 30.09 in Calm   3 mph 49% 0 in meteobridge W/m2
13:00 86.5 °F 63.9 °F 30.09 in NNW 2 mph 4 mph 47% 0 in meteobridge W/m2
13:05 86.9 °F 64.8 °F 30.09 in Calm   1 mph 48% 0 in meteobridge W/m2
13:10 87.1 °F 64.9 °F 30.09 in Calm   3 mph 48% 0 in meteobridge W/m2
13:15 87.3 °F 64.6 °F 30.09 in ENE 0.9 mph 4 mph 47% 0 in meteobridge W/m2
13:20 87.4 °F 63.5 °F 30.09 in Calm   5 mph 45% 0 in meteobridge W/m2
13:25 87.6 °F 62.4 °F 30.09 in ENE 4 mph 5 mph 43% 0 in meteobridge W/m2
13:30 87.8 °F 64.4 °F 30.08 in WSW 2 mph 4 mph 46% 0 in meteobridge W/m2
13:35 88 °F 62.6 °F 30.08 in Calm   4 mph 43% 0 in meteobridge W/m2
13:40 88.2 °F 62.8 °F 30.08 in NNW 0.9 mph 1 mph 43% 0 in meteobridge W/m2
13:45 88.3 °F 63 °F 30.08 in Calm   1 mph 43% 0 in meteobridge W/m2
13:50 88.3 °F 61.7 °F 30.08 in NE 0.9 mph 8 mph 41% 0 in meteobridge W/m2
13:55 88.3 °F 63 °F 30.08 in WNW 4.9 mph 7 mph 43% 0 in meteobridge W/m2
14:00 88.5 °F 63.1 °F 30.07 in SSW 0.9 mph 2 mph 43% 0 in meteobridge W/m2
14:05 88.7 °F 63.3 °F 30.07 in WNW 4.9 mph 8 mph 43% 0 in meteobridge W/m2
14:10 88.9 °F 62.1 °F 30.07 in NNW 0.9 mph 8 mph 41% 0 in meteobridge W/m2
14:15 88.9 °F 62.1 °F 30.07 in NNE 2 mph 4 mph 41% 0 in meteobridge W/m2
14:20 89.2 °F 62.4 °F 30.07 in Calm   1 mph 41% 0 in meteobridge W/m2
14:25 89.1 °F 61.5 °F 30.06 in WNW 0.9 mph 8 mph 40% 0 in meteobridge W/m2
14:30 89.1 °F 61.5 °F 30.06 in WNW 4 mph 8 mph 40% 0 in meteobridge W/m2
14:35 89.4 °F 61.9 °F 30.06 in WNW 2.9 mph 7 mph 40% 0 in meteobridge W/m2
14:40 89.4 °F 61.9 °F 30.06 in West 4.9 mph 5 mph 40% 0 in meteobridge W/m2
14:45 89.8 °F 62.2 °F 30.06 in Calm   6 mph 40% 0 in meteobridge W/m2
14:50 90 °F 63.1 °F 30.06 in Calm   1 mph 41% 0 in meteobridge W/m2
14:55 90.1 °F 61.9 °F 30.05 in Calm   3 mph 39% 0 in meteobridge W/m2
15:00 90.1 °F 61.2 °F 30.05 in Calm   3 mph 38% 0 in meteobridge W/m2
15:05 90.3 °F 62.1 °F 30.05 in Calm   1 mph 39% 0 in meteobridge W/m2
15:10 90.3 °F 61.3 °F 30.04 in NW 2 mph 6 mph 38% 0 in meteobridge W/m2
15:15 90 °F 61.7 °F 30.04 in WNW 0.9 mph 4 mph 39% 0 in meteobridge W/m2
15:20 89.8 °F 61.5 °F 30.04 in Calm   1 mph 39% 0 in meteobridge W/m2
15:25 89.4 °F 60.4 °F 30.04 in Calm   4 mph 38% 0 in meteobridge W/m2
15:30 89.4 °F 60.4 °F 30.04 in NE 0.9 mph 2 mph 38% 0 in meteobridge W/m2
15:35 89.4 °F 61.9 °F 30.04 in WSW 8.1 mph 8 mph 40% 0 in meteobridge W/m2
15:40 89.2 °F 62.4 °F 30.03 in NW 0.9 mph 5 mph 41% 0 in meteobridge W/m2
15:45 89.2 °F 62.4 °F 30.03 in NW 2 mph 2 mph 41% 0 in meteobridge W/m2
15:50 89.2 °F 61.7 °F 30.03 in NW 2 mph 8 mph 40% 0 in meteobridge W/m2
15:55 89.2 °F 62.4 °F 30.03 in Calm   2 mph 41% 0 in meteobridge W/m2
16:00 89.2 °F 62.4 °F 30.03 in Calm   5 mph 41% 0 in meteobridge W/m2
16:05 89.2 °F 63.9 °F 30.03 in WNW 0.9 mph 6 mph 43% 0 in meteobridge W/m2
16:10 89.2 °F 63.1 °F 30.03 in NW 0.9 mph 6 mph 42% 0 in meteobridge W/m2
16:15 89.2 °F 63.9 °F 30.03 in Calm   1 mph 43% 0 in meteobridge W/m2
16:20 89.1 °F 64.2 °F 30.02 in NW 2.9 mph 3 mph 44% 0 in meteobridge W/m2
16:25 89.1 °F 64.2 °F 30.02 in NE 2 mph 5 mph 44% 0 in meteobridge W/m2
16:30 89.2 °F 64.4 °F 30.02 in Calm   3 mph 44% 0 in meteobridge W/m2
16:35 88.9 °F 64.8 °F 30.02 in Calm     45% 0 in meteobridge W/m2
16:40 88.5 °F 64.4 °F 30.02 in Calm   1 mph 45% 0 in meteobridge W/m2
16:45 88.5 °F 64.4 °F 30.01 in West 0.9 mph 6 mph 45% 0 in meteobridge W/m2
16:50 88.5 °F 63.9 °F 30.01 in Calm   5 mph 44% 0 in meteobridge W/m2
16:55 88.7 °F 64 °F 30.01 in Calm   1 mph 44% 0 in meteobridge W/m2
17:00 88.9 °F 64.8 °F 30.01 in NNW 2.9 mph 3 mph 45% 0 in meteobridge W/m2
17:05 88.9 °F 65.5 °F 30.01 in Calm   1 mph 46% 0 in meteobridge W/m2
17:10 88.5 °F 64.4 °F 30.01 in Calm     45% 0 in meteobridge W/m2
17:15 88.3 °F 66.2 °F 30.01 in NNW 2 mph 3 mph 48% 0 in meteobridge W/m2
17:20 88.2 °F 64.8 °F 30.01 in Calm     46% 0 in meteobridge W/m2
17:25 88.2 °F 64.2 °F 30.01 in Calm   2 mph 45% 0 in meteobridge W/m2
17:30 88.3 °F 63.7 °F 30.01 in WNW 2 mph 3 mph 44% 0 in meteobridge W/m2
17:35 88.3 °F 62.4 °F 30.01 in NNW 0.9 mph 1 mph 42% 0 in meteobridge W/m2
17:40 88.3 °F 64.2 °F 30.01 in NNW 2 mph 2 mph 45% 0 in meteobridge W/m2
17:45 88.2 °F 63.5 °F 30.01 in Calm   1 mph 44% 0 in meteobridge W/m2
17:50 88.3 °F 63.7 °F 30.01 in Calm   2 mph 44% 0 in meteobridge W/m2
17:55 88.2 °F 63.5 °F 30.01 in Calm   1 mph 44% 0 in meteobridge W/m2
18:00 88 °F 65.3 °F 30.01 in Calm     47% 0 in meteobridge W/m2
18:05 87.6 °F 66 °F 30.01 in Calm     49% 0 in meteobridge W/m2
18:10 87.4 °F 63.5 °F 30.01 in Calm     45% 0 in meteobridge W/m2
18:15 87.1 °F 65.7 °F 30.01 in Calm     49% 0 in meteobridge W/m2
18:20 86.7 °F 67.5 °F 30.01 in Calm     53% 0 in meteobridge W/m2
18:25 86.4 °F 66.7 °F 30.01 in Calm     52% 0 in meteobridge W/m2
18:30 85.6 °F 67.6 °F 30.01 in Calm     55% 0 in meteobridge W/m2
18:35 84.7 °F 68.4 °F 30.01 in Calm     58% 0 in meteobridge W/m2
18:40 83.8 °F 68 °F 30.01 in Calm     59% 0 in meteobridge W/m2
18:45 82.9 °F 68.2 °F 30.01 in Calm     61% 0 in meteobridge W/m2
18:50 82.2 °F 67.5 °F 30.01 in Calm     61% 0 in meteobridge W/m2
18:55 81.5 °F 68.2 °F 30.01 in Calm     64% 0 in meteobridge W/m2
19:00 81 °F 67.6 °F 30.01 in Calm     64% 0 in meteobridge W/m2
19:05 80.4 °F 67.6 °F 30.01 in Calm     65% 0 in meteobridge W/m2
19:10 79.9 °F 67.5 °F 30.01 in Calm     66% 0 in meteobridge W/m2
19:15 79.3 °F 67.5 °F 30.01 in Calm     67% 0 in meteobridge W/m2
19:20 79 °F 67.5 °F 30.01 in Calm     68% 0 in meteobridge W/m2
19:25 78.6 °F 67.6 °F 30.01 in Calm     69% 0 in meteobridge W/m2
19:30 78.3 °F 67.6 °F 30.01 in Calm     70% 0 in meteobridge W/m2
19:35 77.9 °F 67.8 °F 30.01 in Calm     71% 0 in meteobridge W/m2
19:40 77.5 °F 67.5 °F 30.01 in Calm     71% 0 in meteobridge W/m2
19:45 77.4 °F 67.6 °F 30.01 in Calm     72% 0 in meteobridge W/m2
19:50 77 °F 67.6 °F 30.01 in Calm     73% 0 in meteobridge W/m2
19:55 76.6 °F 67.6 °F 30.01 in Calm     74% 0 in meteobridge W/m2
20:00 76.3 °F 67.5 °F 30.01 in Calm     74% 0 in meteobridge W/m2
20:05 75.9 °F 67.5 °F 30.01 in Calm     75% 0 in meteobridge W/m2
20:10 75.7 °F 67.3 °F 30.01 in Calm     75% 0 in meteobridge W/m2
20:15 75.4 °F 67.3 °F 30.01 in Calm     76% 0 in meteobridge W/m2
20:20 75 °F 67.3 °F 30.01 in Calm     77% 0 in meteobridge W/m2
20:25 74.7 °F 67.3 °F 30.01 in Calm     78% 0 in meteobridge W/m2
20:30 74.1 °F 66.7 °F 30.01 in Calm     78% 0 in meteobridge W/m2
20:35 73.9 °F 66.6 °F 30.01 in Calm     78% 0 in meteobridge W/m2
20:40 73.6 °F 66.7 °F 30.02 in Calm     79% 0 in meteobridge W/m2
20:45 73.2 °F 66.4 °F 30.02 in Calm     79% 0 in meteobridge W/m2
20:50 73 °F 66.6 °F 30.02 in Calm     80% 0 in meteobridge W/m2
20:55 72.7 °F 66.6 °F 30.02 in Calm     81% 0 in meteobridge W/m2
21:00 72.3 °F 66.2 °F 30.02 in Calm     81% 0 in meteobridge W/m2
21:05 72 °F 66.2 °F 30.02 in Calm     82% 0 in meteobridge W/m2
21:10 71.8 °F 66 °F 30.02 in Calm     82% 0 in meteobridge W/m2
21:15 71.6 °F 66.2 °F 30.02 in Calm     83% 0 in meteobridge W/m2
21:20 71.4 °F 66 °F 30.02 in Calm     83% 0 in meteobridge W/m2
21:25 71.1 °F 66 °F 30.02 in Calm     84% 0 in meteobridge W/m2
21:30 70.9 °F 65.8 °F 30.02 in Calm     84% 0 in meteobridge W/m2
21:35 70.5 °F 65.5 °F 30.03 in Calm     84% 0 in meteobridge W/m2
21:40 70.5 °F 65.8 °F 30.03 in Calm     85% 0 in meteobridge W/m2
21:45 70.3 °F 66 °F 30.03 in Calm     86% 0 in meteobridge W/m2
21:50 70.2 °F 65.8 °F 30.03 in Calm     86% 0 in meteobridge W/m2
21:55 70 °F 66 °F 30.03 in Calm     87% 0 in meteobridge W/m2
22:00 69.8 °F 65.8 °F 30.03 in Calm     87% 0 in meteobridge W/m2
22:05 69.6 °F 65.7 °F 30.03 in Calm     87% 0 in meteobridge W/m2
22:10 69.4 °F 65.7 °F 30.03 in Calm     88% 0 in meteobridge W/m2
22:15 69.4 °F 65.7 °F 30.03 in Calm     88% 0 in meteobridge W/m2
22:20 69.4 °F 65.7 °F 30.03 in Calm     88% 0 in meteobridge W/m2
22:25 69.3 °F 65.8 °F 30.03 in Calm     89% 0 in meteobridge W/m2
22:30 69.3 °F 65.8 °F 30.03 in Calm     89% 0 in meteobridge W/m2
22:35 69.3 °F 65.8 °F 30.03 in Calm     89% 0 in meteobridge W/m2
22:40 69.1 °F 65.7 °F 30.03 in Calm     89% 0 in meteobridge W/m2
22:45 68.9 °F 65.8 °F 30.03 in Calm     90% 0 in meteobridge W/m2
22:50 68.7 °F 65.7 °F 30.03 in Calm     90% 0 in meteobridge W/m2
22:55 68.7 °F 65.7 °F 30.03 in Calm     90% 0 in meteobridge W/m2
23:00 68.5 °F 65.5 °F 30.03 in Calm     90% 0 in meteobridge W/m2
23:05 68.4 °F 65.3 °F 30.03 in Calm     90% 0 in meteobridge W/m2
23:10 68.4 °F 65.7 °F 30.03 in Calm     91% 0 in meteobridge W/m2
23:15 68.2 °F 65.5 °F 30.03 in Calm     91% 0 in meteobridge W/m2
23:20 68 °F 65.3 °F 30.03 in Calm     91% 0 in meteobridge W/m2
23:25 67.8 °F 65.1 °F 30.03 in Calm     91% 0 in meteobridge W/m2
23:30 67.6 °F 64.9 °F 30.03 in Calm     91% 0 in meteobridge W/m2
23:35 67.6 °F 64.9 °F 30.03 in Calm     91% 0 in meteobridge W/m2
23:40 67.6 °F 64.9 °F 30.03 in Calm     91% 0 in meteobridge W/m2
23:45 67.5 °F 64.8 °F 30.03 in Calm     91% 0 in meteobridge W/m2
23:50 67.3 °F 64.9 °F 30.03 in Calm     92% 0 in meteobridge W/m2
23:55 67.3 °F 64.9 °F 30.03 in Calm     92% 0 in meteobridge W/m2
EllijayWeather
Compliments of Weather Underground - 2.5 mb